Time;durP1;ratioP1;P1;durP2;ratioP2;P2;SDS_P1;SDS_P2;PMS_P1;PMS_P2;Temp;Humidity;BMP_temperature;BMP_pressure;BME280_temperature;BME280_humidity;BME280_pressure;Samples;Min_cycle;Max_cycle;Signal;HPM_P1;HPM_P2
2021/03/07 00:00:25;;;;;;;;;;;8.20;92.80;;;;;;5114709;28;20010;-73
2021/03/07 00:02:52;;;;;;;;;;;8.20;92.90;;;;;;5114527;28;20080;-73
2021/03/07 00:05:18;;;;;;;;;;;8.20;92.80;;;;;;5113725;28;20129;-73
2021/03/07 00:07:45;;;;;;;;;;;8.10;92.80;;;;;;5112481;28;20082;-73
2021/03/07 00:10:13;;;;;;;;;;;8.10;92.70;;;;;;5113617;28;20023;-73
2021/03/07 00:12:41;;;;;;;;;;;8.10;92.90;;;;;;5114182;28;20006;-73
2021/03/07 00:15:09;;;;;;;;;;;8.10;92.80;;;;;;5113776;28;19995;-74
2021/03/07 00:17:36;;;;;;;;;;;8.10;92.80;;;;;;5113931;28;19978;-73
2021/03/07 00:20:03;;;;;;;;;;;8.10;92.90;;;;;;5113551;28;20273;-73
2021/03/07 00:22:29;;;;;;;;;;;8.00;92.80;;;;;;5113965;28;20026;-73
2021/03/07 00:24:55;;;;;;;;;;;8.00;92.60;;;;;;5113998;28;20054;-74
2021/03/07 00:27:22;;;;;;;;;;;8.00;92.60;;;;;;5111388;28;20023;-74
2021/03/07 00:29:48;;;;;;;;;;;8.00;92.50;;;;;;5114063;28;20030;-74
2021/03/07 00:32:18;;;;;;;;;;;8.00;92.40;;;;;;5113178;28;19959;-74
2021/03/07 00:34:44;;;;;;;;;;;8.00;92.30;;;;;;5111755;28;19940;-75
2021/03/07 00:37:10;;;;;;;;;;;8.10;92.20;;;;;;5112587;28;20022;-73
2021/03/07 00:39:37;;;;;;;;;;;8.00;92.20;;;;;;5113677;28;20036;-73
2021/03/07 00:42:03;;;;;;;;;;;7.90;92.10;;;;;;5113236;28;19993;-74
2021/03/07 00:44:29;;;;;;;;;;;8.00;92.20;;;;;;5113808;28;20010;-72
2021/03/07 00:46:56;;;;;;;;;;;8.00;92.10;;;;;;5113664;28;19970;-72
2021/03/07 00:49:25;;;;;;;;;;;8.00;92.10;;;;;;5113118;28;19955;-74
2021/03/07 00:51:51;;;;;;;;;;;8.00;92.20;;;;;;5112288;28;20022;-75
2021/03/07 00:54:17;;;;;;;;;;;8.00;92.20;;;;;;5103742;28;20017;-74
2021/03/07 00:56:43;;;;;;;;;;;8.00;92.20;;;;;;5113443;28;20026;-73
2021/03/07 00:59:10;;;;;;;;;;;7.90;92.30;;;;;;5110713;28;19976;-73
2021/03/07 01:01:36;;;;;;;;;;;7.90;92.50;;;;;;5113699;28;20048;-74
2021/03/07 01:04:03;;;;;;;;;;;7.90;92.60;;;;;;5112901;28;20007;-73
2021/03/07 01:06:30;;;;;;;;;;;8.00;92.80;;;;;;5113264;28;20404;-74
2021/03/07 01:08:56;;;;;;;;;;;7.90;92.70;;;;;;5111389;28;20003;-73
2021/03/07 01:11:22;;;;;;;;;;;8.00;92.90;;;;;;5111706;28;19998;-73
2021/03/07 01:13:49;;;;;;;;;;;7.90;93.00;;;;;;5092757;28;20023;-73
2021/03/07 01:16:15;;;;;;;;;;;7.90;93.10;;;;;;5092413;28;20043;-73
2021/03/07 01:18:41;;;;;;;;;;;7.80;93.20;;;;;;5091861;28;20027;-73
2021/03/07 01:21:07;;;;;;;;;;;7.90;93.30;;;;;;5092051;28;20338;-73
2021/03/07 01:23:34;;;;;;;;;;;7.90;93.00;;;;;;5092706;28;20019;-74
2021/03/07 01:26:01;;;;;;;;;;;7.90;93.10;;;;;;5092657;28;20015;-73
2021/03/07 01:28:28;;;;;;;;;;;7.90;93.00;;;;;;5091227;28;20144;-73
2021/03/07 01:30:54;;;;;;;;;;;7.80;92.80;;;;;;5092810;28;20119;-73
2021/03/07 01:33:20;;;;;;;;;;;7.80;93.00;;;;;;5092065;28;20011;-73
2021/03/07 01:35:47;;;;;;;;;;;7.80;93.00;;;;;;5092609;28;19924;-74
2021/03/07 01:38:13;;;;;;;;;;;7.80;93.00;;;;;;5091646;28;19924;-72
2021/03/07 01:40:42;;;;;;;;;;;7.80;93.00;;;;;;5096771;28;20008;-74
2021/03/07 01:43:08;;;;;;;;;;;7.80;93.20;;;;;;5096387;28;20333;-75
2021/03/07 01:45:35;;;;;;;;;;;7.70;93.30;;;;;;5096784;28;20011;-73
2021/03/07 01:48:03;;;;;;;;;;;7.70;93.30;;;;;;5096572;28;20006;-74
2021/03/07 01:50:29;;;;;;;;;;;7.70;93.40;;;;;;5096097;28;20324;-73
2021/03/07 01:52:56;;;;;;;;;;;7.70;93.50;;;;;;5096516;28;20007;-73
2021/03/07 01:55:24;;;;;;;;;;;7.80;93.70;;;;;;5095929;28;20011;-73
2021/03/07 01:57:53;;;;;;;;;;;7.70;93.70;;;;;;5096411;28;20013;-73
2021/03/07 02:00:20;;;;;;;;;;;7.70;93.90;;;;;;5095829;28;19967;-73
2021/03/07 02:02:46;;;;;;;;;;;7.70;93.70;;;;;;5096444;28;20034;-73
2021/03/07 02:05:14;;;;;;;;;;;7.60;93.70;;;;;;5095864;28;20023;-73
2021/03/07 02:07:41;;;;;;;;;;;7.70;93.70;;;;;;5096089;28;20618;-73
2021/03/07 02:10:10;;;;;;;;;;;7.60;93.10;;;;;;5095839;28;19999;-73
2021/03/07 02:12:36;;;;;;;;;;;7.60;93.30;;;;;;5107456;28;20054;-73
2021/03/07 02:15:05;;;;;;;;;;;7.60;93.40;;;;;;5116215;28;20027;-73
2021/03/07 02:17:32;;;;;;;;;;;7.60;93.30;;;;;;5116142;28;20015;-74
2021/03/07 02:19:58;;;;;;;;;;;7.60;93.30;;;;;;5116476;28;19984;-73
2021/03/07 02:22:27;;;;;;;;;;;7.60;93.20;;;;;;5115753;28;20019;-74
2021/03/07 02:24:55;;;;;;;;;;;7.60;93.20;;;;;;5116527;28;20006;-73
2021/03/07 02:27:21;;;;;;;;;;;7.60;93.10;;;;;;5105122;28;19963;-73
2021/03/07 02:29:47;;;;;;;;;;;7.60;92.90;;;;;;5096026;28;20003;-73
2021/03/07 02:32:16;;;;;;;;;;;7.60;92.90;;;;;;5095373;28;20015;-74
2021/03/07 02:34:46;;;;;;;;;;;7.60;92.70;;;;;;5095429;28;19970;-74
2021/03/07 02:37:16;;;;;;;;;;;7.50;92.60;;;;;;5095011;28;19956;-73
2021/03/07 02:39:43;;;;;;;;;;;7.50;92.50;;;;;;5095829;28;19924;-74
2021/03/07 02:42:13;;;;;;;;;;;7.50;92.40;;;;;;5094967;28;20010;-73
2021/03/07 02:44:40;;;;;;;;;;;7.50;91.60;;;;;;5095653;28;20354;-73
2021/03/07 02:47:07;;;;;;;;;;;7.50;91.20;;;;;;5095480;28;20015;-73
2021/03/07 02:49:34;;;;;;;;;;;7.40;90.50;;;;;;5094886;28;20339;-74
2021/03/07 02:52:01;;;;;;;;;;;7.40;89.60;;;;;;5092048;28;20410;-73
2021/03/07 02:54:29;;;;;;;;;;;7.40;88.80;;;;;;5109636;28;20018;-74
2021/03/07 02:56:55;;;;;;;;;;;7.30;88.40;;;;;;5115513;28;20009;-74
2021/03/07 02:59:25;;;;;;;;;;;7.20;87.80;;;;;;5095209;28;20031;-73
2021/03/07 03:01:53;;;;;;;;;;;7.20;87.70;;;;;;5095698;28;20010;-73
2021/03/07 03:04:19;;;;;;;;;;;7.10;87.90;;;;;;5094553;28;19924;-73
2021/03/07 03:06:46;;;;;;;;;;;7.10;87.90;;;;;;5094961;28;20293;-73
2021/03/07 03:09:12;;;;;;;;;;;7.10;87.80;;;;;;5094673;28;20019;-73
2021/03/07 03:11:40;;;;;;;;;;;7.10;87.40;;;;;;5098364;28;19959;-74
2021/03/07 03:14:07;;;;;;;;;;;7.10;87.80;;;;;;5115189;28;20011;-72
2021/03/07 03:16:35;;;;;;;;;;;7.10;87.00;;;;;;5115115;28;20316;-73
2021/03/07 03:19:05;;;;;;;;;;;7.20;86.90;;;;;;5115132;28;19928;-72
2021/03/07 03:21:31;;;;;;;;;;;7.20;86.70;;;;;;5114450;28;20022;-72
2021/03/07 03:23:57;;;;;;;;;;;7.20;86.70;;;;;;5115309;28;20010;-72
2021/03/07 03:26:24;;;;;;;;;;;7.20;86.90;;;;;;5111952;28;20010;-73
2021/03/07 03:28:51;;;;;;;;;;;7.20;86.70;;;;;;5100225;28;19934;-73
2021/03/07 03:31:18;;;;;;;;;;;7.10;86.90;;;;;;5114804;28;19924;-73
2021/03/07 03:33:45;;;;;;;;;;;7.20;86.80;;;;;;5103863;28;20011;-73
2021/03/07 03:36:11;;;;;;;;;;;7.20;86.70;;;;;;5094476;28;20313;-73
2021/03/07 03:38:39;;;;;;;;;;;7.10;87.20;;;;;;5093848;28;20014;-73
2021/03/07 03:41:08;;;;;;;;;;;7.10;87.50;;;;;;5094439;28;20011;-73
2021/03/07 03:43:35;;;;;;;;;;;7.10;88.00;;;;;;5094176;28;19968;-72
2021/03/07 03:46:04;;;;;;;;;;;7.10;88.00;;;;;;5094178;28;20014;-73
2021/03/07 03:48:32;;;;;;;;;;;7.10;88.40;;;;;;5076086;28;20034;-72
2021/03/07 03:51:00;;;;;;;;;;;7.10;88.00;;;;;;5094442;28;20023;-74
2021/03/07 03:53:28;;;;;;;;;;;7.10;88.60;;;;;;5083481;28;20338;-73
2021/03/07 03:55:55;;;;;;;;;;;7.00;88.50;;;;;;5094377;28;20032;-73
2021/03/07 03:58:23;;;;;;;;;;;7.00;89.10;;;;;;5093745;28;20253;-73
2021/03/07 04:00:50;;;;;;;;;;;6.90;88.80;;;;;;5094055;28;20011;-72
2021/03/07 04:03:18;;;;;;;;;;;6.90;88.50;;;;;;5093439;28;20323;-73
2021/03/07 04:05:45;;;;;;;;;;;6.90;88.70;;;;;;5095789;28;20011;-73
2021/03/07 04:08:12;;;;;;;;;;;6.80;89.10;;;;;;5114141;28;19927;-73
2021/03/07 04:10:40;;;;;;;;;;;6.80;89.50;;;;;;5095299;28;19963;-73
2021/03/07 04:13:07;;;;;;;;;;;6.80;89.00;;;;;;5109291;28;20026;-73
2021/03/07 04:15:34;;;;;;;;;;;6.70;89.60;;;;;;5113877;28;20333;-73
2021/03/07 04:18:01;;;;;;;;;;;6.70;89.40;;;;;;5114087;28;20007;-74
2021/03/07 04:20:28;;;;;;;;;;;6.80;89.40;;;;;;5113671;28;20019;-73
2021/03/07 04:22:55;;;;;;;;;;;6.80;89.10;;;;;;5113961;28;20073;-73
2021/03/07 04:25:22;;;;;;;;;;;6.70;88.80;;;;;;5113437;28;19999;-74
2021/03/07 04:27:48;;;;;;;;;;;6.70;89.10;;;;;;5099551;28;19924;-73
2021/03/07 04:30:16;;;;;;;;;;;6.70;89.30;;;;;;5093328;28;20031;-73
2021/03/07 04:32:43;;;;;;;;;;;6.60;89.30;;;;;;5093122;28;20031;-73
2021/03/07 04:35:10;;;;;;;;;;;6.60;89.60;;;;;;5093255;28;19956;-73
2021/03/07 04:37:36;;;;;;;;;;;6.60;89.70;;;;;;5092537;28;20360;-73
2021/03/07 04:40:03;;;;;;;;;;;6.60;89.70;;;;;;5093445;28;20011;-73
2021/03/07 04:42:30;;;;;;;;;;;6.60;89.50;;;;;;5092860;28;19967;-74
2021/03/07 04:44:57;;;;;;;;;;;6.60;89.90;;;;;;5093392;28;19931;-74
2021/03/07 04:47:23;;;;;;;;;;;6.60;89.30;;;;;;5092768;28;20003;-73
2021/03/07 04:49:49;;;;;;;;;;;6.60;89.50;;;;;;5093190;28;19967;-74
2021/03/07 04:52:15;;;;;;;;;;;6.60;89.30;;;;;;5093029;28;19970;-73
2021/03/07 04:54:41;;;;;;;;;;;6.60;89.10;;;;;;5092705;28;20019;-73
2021/03/07 04:57:08;;;;;;;;;;;6.60;88.60;;;;;;5092952;28;20019;-73
2021/03/07 04:59:35;;;;;;;;;;;6.70;89.10;;;;;;5092253;28;20317;-73
2021/03/07 05:02:01;;;;;;;;;;;6.70;89.00;;;;;;5093345;28;20331;-73
2021/03/07 05:04:27;;;;;;;;;;;6.70;88.20;;;;;;5092308;28;19974;-73
2021/03/07 05:06:54;;;;;;;;;;;6.70;88.20;;;;;;5093086;28;20012;-73
2021/03/07 05:09:20;;;;;;;;;;;6.70;88.20;;;;;;5091881;28;20006;-73
2021/03/07 05:11:46;;;;;;;;;;;6.60;87.80;;;;;;5094978;28;20007;-73
2021/03/07 05:14:13;;;;;;;;;;;6.60;88.40;;;;;;5111527;28;20014;-73
2021/03/07 05:16:40;;;;;;;;;;;6.60;88.10;;;;;;5112630;28;20002;-73
2021/03/07 05:19:06;;;;;;;;;;;6.60;87.80;;;;;;5112716;28;20007;-73
2021/03/07 05:21:33;;;;;;;;;;;6.60;88.30;;;;;;5112423;28;19959;-73
2021/03/07 05:24:00;;;;;;;;;;;6.60;88.20;;;;;;5113126;28;20065;-73
2021/03/07 05:26:29;;;;;;;;;;;6.60;87.80;;;;;;5112610;28;20293;-73
2021/03/07 05:28:55;;;;;;;;;;;6.60;87.70;;;;;;5113336;28;19942;-73
2021/03/07 05:31:21;;;;;;;;;;;6.60;87.30;;;;;;5113067;28;20049;-73
2021/03/07 05:33:48;;;;;;;;;;;6.50;87.20;;;;;;5112907;28;20018;-73
2021/03/07 05:36:15;;;;;;;;;;;6.40;87.70;;;;;;5095770;28;19924;-73
2021/03/07 05:38:41;;;;;;;;;;;6.40;88.00;;;;;;5102611;28;20289;-72
2021/03/07 05:41:07;;;;;;;;;;;6.40;88.10;;;;;;5113210;28;19993;-73
2021/03/07 05:43:33;;;;;;;;;;;6.30;88.40;;;;;;5112290;28;20027;-73
2021/03/07 05:46:00;;;;;;;;;;;6.40;87.80;;;;;;5112808;28;20018;-74
2021/03/07 05:48:27;;;;;;;;;;;6.40;87.30;;;;;;5112626;28;20002;-72
2021/03/07 05:50:54;;;;;;;;;;;6.40;87.10;;;;;;5112704;28;20018;-73
2021/03/07 05:53:20;;;;;;;;;;;6.40;87.30;;;;;;5112961;28;20400;-73
2021/03/07 05:55:47;;;;;;;;;;;6.40;87.00;;;;;;5112499;28;20019;-73
2021/03/07 05:58:13;;;;;;;;;;;6.40;87.10;;;;;;5112412;28;20425;-73
2021/03/07 06:00:40;;;;;;;;;;;6.50;87.20;;;;;;5112300;28;20346;-74
2021/03/07 06:03:06;;;;;;;;;;;6.50;86.20;;;;;;5113025;28;20327;-73
2021/03/07 06:05:33;;;;;;;;;;;6.40;86.40;;;;;;5112088;28;20014;-73
2021/03/07 06:08:01;;;;;;;;;;;6.40;86.70;;;;;;5112855;28;20011;-74
2021/03/07 06:10:28;;;;;;;;;;;6.50;86.70;;;;;;5112235;28;20007;-74
2021/03/07 06:13:02;;;;;;;;;;;6.40;86.70;;;;;;5112312;28;20061;-74
2021/03/07 06:15:28;;;;;;;;;;;6.50;86.90;;;;;;5112312;28;19959;-73
2021/03/07 06:17:54;;;;;;;;;;;6.40;86.60;;;;;;5112798;28;20088;-73
2021/03/07 06:20:21;;;;;;;;;;;6.50;86.50;;;;;;5112518;28;20010;-73
2021/03/07 06:22:51;;;;;;;;;;;6.50;86.10;;;;;;5112598;28;20310;-73
2021/03/07 06:25:18;;;;;;;;;;;6.50;86.10;;;;;;5114285;28;20026;-73
2021/03/07 06:27:44;;;;;;;;;;;6.40;86.00;;;;;;5115916;28;20003;-73
2021/03/07 06:30:11;;;;;;;;;;;6.40;85.90;;;;;;5116479;28;20002;-72
2021/03/07 06:32:39;;;;;;;;;;;6.40;86.00;;;;;;5116034;28;20069;-74
2021/03/07 06:35:05;;;;;;;;;;;6.50;85.90;;;;;;5116025;28;20052;-73
2021/03/07 06:37:32;;;;;;;;;;;6.40;85.50;;;;;;5115893;28;20012;-73
2021/03/07 06:39:58;;;;;;;;;;;6.40;85.80;;;;;;5116500;28;20003;-73
2021/03/07 06:42:25;;;;;;;;;;;6.30;85.60;;;;;;5116122;28;20007;-73
2021/03/07 06:44:53;;;;;;;;;;;6.30;85.70;;;;;;5115601;28;19982;-74
2021/03/07 06:47:19;;;;;;;;;;;6.40;85.80;;;;;;5116127;28;19974;-73
2021/03/07 06:49:46;;;;;;;;;;;6.40;85.50;;;;;;5115472;28;19967;-74
2021/03/07 06:52:13;;;;;;;;;;;6.30;85.60;;;;;;5115953;28;20019;-72
2021/03/07 06:54:40;;;;;;;;;;;6.40;85.60;;;;;;5115517;28;19931;-73
2021/03/07 06:57:07;;;;;;;;;;;6.40;85.50;;;;;;5115862;28;19924;-74
2021/03/07 06:59:34;;;;;;;;;;;6.40;85.70;;;;;;5115351;28;19924;-73
2021/03/07 07:02:00;;;;;;;;;;;6.40;85.50;;;;;;5116067;28;20008;-74
2021/03/07 07:04:40;;;;;;;;;;;6.50;85.40;;;;;;5115762;28;20027;-74
2021/03/07 07:07:07;;;;;;;;;;;6.50;85.40;;;;;;5116222;28;20303;-74
2021/03/07 07:09:33;;;;;;;;;;;6.60;84.80;;;;;;5115276;28;20010;-73
2021/03/07 07:11:59;;;;;;;;;;;6.60;84.80;;;;;;5115580;28;20341;-73
2021/03/07 07:14:29;;;;;;;;;;;6.70;84.80;;;;;;5114846;28;20014;-73
2021/03/07 07:16:56;;;;;;;;;;;6.70;83.70;;;;;;5115546;28;20039;-74
2021/03/07 07:19:22;;;;;;;;;;;6.80;83.60;;;;;;5115003;28;20001;-74
2021/03/07 07:21:48;;;;;;;;;;;6.80;83.30;;;;;;5115570;28;20003;-73
2021/03/07 07:24:15;;;;;;;;;;;6.80;82.90;;;;;;5114917;28;19967;-74
2021/03/07 07:26:41;;;;;;;;;;;6.80;82.90;;;;;;5115366;28;20028;-73
2021/03/07 07:29:07;;;;;;;;;;;6.70;82.80;;;;;;5115383;28;20016;-73
2021/03/07 07:31:35;;;;;;;;;;;6.70;82.90;;;;;;5114769;28;20027;-73
2021/03/07 07:34:03;;;;;;;;;;;6.70;83.20;;;;;;5115417;28;19989;-73
2021/03/07 07:36:32;;;;;;;;;;;6.70;83.20;;;;;;5113983;28;20002;-73
2021/03/07 07:38:59;;;;;;;;;;;6.70;83.20;;;;;;5115070;28;20006;-73
2021/03/07 07:41:30;;;;;;;;;;;6.60;83.20;;;;;;5114677;28;20018;-73
2021/03/07 07:43:56;;;;;;;;;;;6.70;83.30;;;;;;5114938;28;20010;-73
2021/03/07 07:46:22;;;;;;;;;;;6.70;83.40;;;;;;5113906;28;20026;-73
2021/03/07 07:48:48;;;;;;;;;;;6.70;83.20;;;;;;5115024;28;20421;-73
2021/03/07 07:51:32;;;;;;;;;;;6.70;83.20;;;;;;5114340;28;20334;-73
2021/03/07 07:53:58;;;;;;;;;;;6.80;82.60;;;;;;5114532;28;20417;-73
2021/03/07 07:56:35;;;;;;;;;;;6.80;82.10;;;;;;5113956;28;20022;-73
2021/03/07 07:59:01;;;;;;;;;;;6.70;82.20;;;;;;5114408;28;20718;-73
2021/03/07 08:01:46;;;;;;;;;;;6.80;82.50;;;;;;5114231;28;20035;-73
2021/03/07 08:04:34;;;;;;;;;;;6.70;82.40;;;;;;5114395;28;20010;-73
2021/03/07 08:07:01;;;;;;;;;;;6.80;81.50;;;;;;5114440;28;19924;-73
2021/03/07 08:09:35;;;;;;;;;;;6.80;81.60;;;;;;5114563;28;20007;-73
2021/03/07 08:12:22;;;;;;;;;;;6.80;81.50;;;;;;5113815;28;20158;-73
2021/03/07 08:14:48;;;;;;;;;;;6.80;81.50;;;;;;5114053;28;19974;-73
2021/03/07 08:17:29;;;;;;;;;;;6.80;81.60;;;;;;5113881;28;19966;-73
2021/03/07 08:19:55;;;;;;;;;;;6.90;81.70;;;;;;5112758;28;20018;-73
2021/03/07 08:22:22;;;;;;;;;;;7.00;80.80;;;;;;5114107;28;20026;-73
2021/03/07 08:24:53;;;;;;;;;;;7.00;80.60;;;;;;5114383;28;20011;-73
2021/03/07 08:27:30;;;;;;;;;;;7.00;80.70;;;;;;5113581;28;20019;-73
2021/03/07 08:29:57;;;;;;;;;;;7.00;80.90;;;;;;5113585;28;20003;-73
2021/03/07 08:32:31;;;;;;;;;;;7.00;80.60;;;;;;5113878;28;19970;-74
2021/03/07 08:34:57;;;;;;;;;;;7.00;80.40;;;;;;5113561;28;19928;-73
2021/03/07 08:37:25;;;;;;;;;;;7.00;80.70;;;;;;5113904;28;20401;-73
2021/03/07 08:40:10;;;;;;;;;;;7.10;80.90;;;;;;5113963;28;19937;-73
2021/03/07 08:42:36;;;;;;;;;;;7.10;81.10;;;;;;5114517;28;19958;-73
2021/03/07 08:45:20;;;;;;;;;;;7.10;80.80;;;;;;5113351;28;20007;-73
2021/03/07 08:47:57;;;;;;;;;;;7.10;80.70;;;;;;5112713;28;19931;-73
2021/03/07 08:50:24;;;;;;;;;;;7.10;81.10;;;;;;5113229;28;19973;-73
2021/03/07 08:52:51;;;;;;;;;;;7.10;81.30;;;;;;5113321;28;20007;-73
2021/03/07 08:55:17;;;;;;;;;;;7.10;81.20;;;;;;5113804;28;20527;-73
2021/03/07 08:57:44;;;;;;;;;;;7.10;81.70;;;;;;5112890;28;20019;-73
2021/03/07 09:00:11;;;;;;;;;;;7.10;81.60;;;;;;5113587;28;20006;-73
2021/03/07 09:02:38;;;;;;;;;;;7.20;81.40;;;;;;5113520;28;19966;-73
2021/03/07 09:05:05;;;;;;;;;;;7.10;81.60;;;;;;5113224;28;20546;-73
2021/03/07 09:07:32;;;;;;;;;;;7.10;81.60;;;;;;5113482;28;20342;-74
2021/03/07 09:10:00;;;;;;;;;;;7.10;81.60;;;;;;5113088;28;19999;-74
2021/03/07 09:12:26;;;;;;;;;;;7.20;81.30;;;;;;5113069;28;20285;-73
2021/03/07 09:14:52;;;;;;;;;;;7.20;81.50;;;;;;5112905;28;20010;-73
2021/03/07 09:17:19;;;;;;;;;;;7.20;81.40;;;;;;5113386;28;20071;-73
2021/03/07 09:19:46;;;;;;;;;;;7.20;81.00;;;;;;5112634;28;19955;-73
2021/03/07 09:22:17;;;;;;;;;;;7.20;81.40;;;;;;5113310;28;20010;-73
2021/03/07 09:24:53;;;;;;;;;;;7.20;81.30;;;;;;5112604;28;19924;-73
2021/03/07 09:27:21;;;;;;;;;;;7.20;80.80;;;;;;5113085;28;20022;-73
2021/03/07 09:29:57;;;;;;;;;;;7.20;80.70;;;;;;5112736;28;19970;-73
2021/03/07 09:32:25;;;;;;;;;;;7.20;81.00;;;;;;5113146;28;19978;-73
2021/03/07 09:34:51;;;;;;;;;;;7.20;81.00;;;;;;5112646;28;20027;-73
2021/03/07 09:37:17;;;;;;;;;;;7.20;81.40;;;;;;5113136;28;20002;-73
2021/03/07 09:39:45;;;;;;;;;;;7.20;81.80;;;;;;5112836;28;20019;-73
2021/03/07 09:42:11;;;;;;;;;;;7.20;81.70;;;;;;5112988;28;20014;-73
2021/03/07 09:44:38;;;;;;;;;;;7.20;82.20;;;;;;5113278;28;20022;-73
2021/03/07 09:47:05;;;;;;;;;;;7.20;82.60;;;;;;5112044;28;20019;-73
2021/03/07 09:49:31;;;;;;;;;;;7.30;83.00;;;;;;5113012;28;20002;-74
2021/03/07 09:51:57;;;;;;;;;;;7.40;81.60;;;;;;5112548;28;20019;-74
2021/03/07 09:54:25;;;;;;;;;;;7.40;82.00;;;;;;5112978;28;19997;-74
2021/03/07 09:56:52;;;;;;;;;;;7.40;81.60;;;;;;5112389;28;19935;-73
2021/03/07 09:59:19;;;;;;;;;;;7.50;82.10;;;;;;5112930;28;19931;-74
2021/03/07 10:01:48;;;;;;;;;;;7.50;82.40;;;;;;5116574;28;19958;-73
2021/03/07 10:04:28;;;;;;;;;;;7.50;82.50;;;;;;5116911;28;19923;-73
2021/03/07 10:06:54;;;;;;;;;;;7.50;82.60;;;;;;5116632;28;19924;-74
2021/03/07 10:09:20;;;;;;;;;;;7.60;83.40;;;;;;5116990;28;20019;-74
2021/03/07 10:11:57;;;;;;;;;;;7.50;83.20;;;;;;5116351;28;19994;-74
2021/03/07 10:14:27;;;;;;;;;;;7.50;82.70;;;;;;5116530;28;20002;-74
2021/03/07 10:16:54;;;;;;;;;;;7.50;81.40;;;;;;5116155;28;19955;-73
2021/03/07 10:19:21;;;;;;;;;;;7.50;81.00;;;;;;5116461;28;20026;-74
2021/03/07 10:21:47;;;;;;;;;;;7.50;81.40;;;;;;5116161;28;19956;-74
2021/03/07 10:24:15;;;;;;;;;;;7.50;81.20;;;;;;5116674;28;19959;-73
2021/03/07 10:26:43;;;;;;;;;;;7.50;81.50;;;;;;5116340;28;20028;-73
2021/03/07 10:29:19;;;;;;;;;;;7.50;81.30;;;;;;5116105;28;19963;-74
2021/03/07 10:32:03;;;;;;;;;;;7.60;80.90;;;;;;5116144;28;19928;-72
2021/03/07 10:34:36;;;;;;;;;;;7.50;80.90;;;;;;5116293;28;19970;-74
2021/03/07 10:37:02;;;;;;;;;;;7.50;81.20;;;;;;5115866;28;20050;-73
2021/03/07 10:39:28;;;;;;;;;;;7.50;81.20;;;;;;5116354;28;20018;-73
2021/03/07 10:42:05;;;;;;;;;;;7.40;81.00;;;;;;5115828;28;20003;-73
2021/03/07 10:44:31;;;;;;;;;;;7.40;81.20;;;;;;5116377;28;20022;-74
2021/03/07 10:46:57;;;;;;;;;;;7.40;80.90;;;;;;5115581;28;20002;-75
2021/03/07 10:49:24;;;;;;;;;;;7.40;80.60;;;;;;5116044;28;19967;-74
2021/03/07 10:51:51;;;;;;;;;;;7.40;80.40;;;;;;5115684;28;20011;-74
2021/03/07 10:54:17;;;;;;;;;;;7.30;80.80;;;;;;5115983;28;19998;-73
2021/03/07 10:56:43;;;;;;;;;;;7.40;80.50;;;;;;5116040;28;20006;-74
2021/03/07 10:59:11;;;;;;;;;;;7.30;79.50;;;;;;5115183;28;20026;-73
2021/03/07 11:01:38;;;;;;;;;;;7.20;80.20;;;;;;5115854;28;19924;-75
2021/03/07 11:04:05;;;;;;;;;;;7.10;80.40;;;;;;5115406;28;19979;-74
2021/03/07 11:06:32;;;;;;;;;;;7.10;80.70;;;;;;5115758;28;20027;-73
2021/03/07 11:08:58;;;;;;;;;;;7.20;80.90;;;;;;5114823;28;19963;-74
2021/03/07 11:11:24;;;;;;;;;;;7.20;80.70;;;;;;5114644;28;19924;-73
2021/03/07 11:13:50;;;;;;;;;;;7.30;80.50;;;;;;5114323;28;20027;-73
2021/03/07 11:16:18;;;;;;;;;;;7.20;80.60;;;;;;5114730;28;20275;-73
2021/03/07 11:18:44;;;;;;;;;;;7.20;80.80;;;;;;5115585;28;20022;-73
2021/03/07 11:21:11;;;;;;;;;;;7.30;81.10;;;;;;5115115;28;20018;-73
2021/03/07 11:23:38;;;;;;;;;;;7.40;80.90;;;;;;5115606;28;20183;-73
2021/03/07 11:26:04;;;;;;;;;;;7.40;80.40;;;;;;5114964;28;20022;-74
2021/03/07 11:28:30;;;;;;;;;;;7.40;80.70;;;;;;5115217;28;20014;-73
2021/03/07 11:30:57;;;;;;;;;;;7.40;80.40;;;;;;5114870;28;20068;-73
2021/03/07 11:33:25;;;;;;;;;;;7.40;80.60;;;;;;5115334;28;20008;-73
2021/03/07 11:35:52;;;;;;;;;;;7.40;80.70;;;;;;5114650;28;20018;-73
2021/03/07 11:38:18;;;;;;;;;;;7.40;80.70;;;;;;5115337;28;20395;-73
2021/03/07 11:40:45;;;;;;;;;;;7.40;80.50;;;;;;5115186;28;20006;-73
2021/03/07 11:43:12;;;;;;;;;;;7.40;80.20;;;;;;5114790;28;20014;-73
2021/03/07 11:45:38;;;;;;;;;;;7.40;80.40;;;;;;5115219;28;20014;-73
2021/03/07 11:48:04;;;;;;;;;;;7.40;80.30;;;;;;5114308;28;20006;-73
2021/03/07 11:50:31;;;;;;;;;;;7.40;80.20;;;;;;5115034;28;20161;-73
2021/03/07 11:52:57;;;;;;;;;;;7.40;80.20;;;;;;5114671;28;20014;-73
2021/03/07 11:55:26;;;;;;;;;;;7.40;80.00;;;;;;5114770;28;20015;-73
2021/03/07 11:57:53;;;;;;;;;;;7.50;80.20;;;;;;5114318;28;19962;-73
2021/03/07 12:00:19;;;;;;;;;;;7.40;80.70;;;;;;5114464;28;20006;-73
2021/03/07 12:02:45;;;;;;;;;;;7.50;80.00;;;;;;5114662;28;20397;-73
2021/03/07 12:05:12;;;;;;;;;;;7.40;79.90;;;;;;5114172;28;19970;-73
2021/03/07 12:07:38;;;;;;;;;;;7.40;80.70;;;;;;5114483;28;19928;-74
2021/03/07 12:10:05;;;;;;;;;;;7.40;80.70;;;;;;5113978;28;19959;-74
2021/03/07 12:12:32;;;;;;;;;;;7.40;80.40;;;;;;5114489;28;19962;-74
2021/03/07 12:14:59;;;;;;;;;;;7.40;81.20;;;;;;5114022;28;19966;-74
2021/03/07 12:17:26;;;;;;;;;;;7.40;80.80;;;;;;5114308;28;20375;-73
2021/03/07 12:19:52;;;;;;;;;;;7.40;80.40;;;;;;5114247;28;20362;-73
2021/03/07 12:22:18;;;;;;;;;;;7.30;80.50;;;;;;5113645;28;20431;-74
2021/03/07 12:24:44;;;;;;;;;;;7.40;81.10;;;;;;5114362;28;19951;-72
2021/03/07 12:27:10;;;;;;;;;;;7.40;81.00;;;;;;5113914;28;20023;-73
2021/03/07 12:29:37;;;;;;;;;;;7.30;81.10;;;;;;5114169;28;20014;-73
2021/03/07 12:32:05;;;;;;;;;;;7.30;81.30;;;;;;5113894;28;20018;-74
2021/03/07 12:34:31;;;;;;;;;;;7.40;81.40;;;;;;5113884;28;19977;-73
2021/03/07 12:36:58;;;;;;;;;;;7.50;81.10;;;;;;5113518;28;20428;-74
2021/03/07 12:39:24;;;;;;;;;;;7.50;80.60;;;;;;5114161;28;19970;-74
2021/03/07 12:41:50;;;;;;;;;;;7.50;80.20;;;;;;5114138;28;20023;-73
2021/03/07 12:44:16;;;;;;;;;;;7.50;80.00;;;;;;5113367;28;19959;-73
2021/03/07 12:46:43;;;;;;;;;;;7.40;79.60;;;;;;5113752;28;20358;-73
2021/03/07 12:49:10;;;;;;;;;;;7.40;80.30;;;;;;5113147;28;20369;-73
2021/03/07 12:51:36;;;;;;;;;;;7.40;79.50;;;;;;5113641;28;19963;-74
2021/03/07 12:54:03;;;;;;;;;;;7.30;79.60;;;;;;5113059;28;19930;-73
2021/03/07 12:56:30;;;;;;;;;;;7.40;79.30;;;;;;5113599;28;19928;-73
2021/03/07 12:58:56;;;;;;;;;;;7.40;79.60;;;;;;5113056;28;19969;-74
2021/03/07 13:01:22;;;;;;;;;;;7.40;79.50;;;;;;5113515;28;20015;-73
2021/03/07 13:03:49;;;;;;;;;;;7.40;79.50;;;;;;5113776;28;20010;-74
2021/03/07 13:06:16;;;;;;;;;;;7.50;79.40;;;;;;5112849;28;20014;-74
2021/03/07 13:08:42;;;;;;;;;;;7.40;79.20;;;;;;5113580;28;20045;-73
2021/03/07 13:11:11;;;;;;;;;;;7.50;79.50;;;;;;5113225;28;19970;-73
2021/03/07 13:13:37;;;;;;;;;;;7.50;79.40;;;;;;5093375;28;20388;-73
2021/03/07 13:16:04;;;;;;;;;;;7.50;79.00;;;;;;5091998;28;20410;-73
2021/03/07 13:18:30;;;;;;;;;;;7.60;79.20;;;;;;5092960;28;20014;-74
2021/03/07 13:20:56;;;;;;;;;;;7.60;79.00;;;;;;5092842;28;20416;-73
2021/03/07 13:23:23;;;;;;;;;;;7.60;78.90;;;;;;5092705;28;20325;-74
2021/03/07 13:25:49;;;;;;;;;;;7.60;78.70;;;;;;5092742;28;19924;-73
2021/03/07 13:28:16;;;;;;;;;;;7.70;78.80;;;;;;5092082;28;20386;-73
2021/03/07 13:30:42;;;;;;;;;;;7.70;78.50;;;;;;5092775;28;20023;-73
2021/03/07 13:33:08;;;;;;;;;;;7.70;78.60;;;;;;5092410;28;19971;-73
2021/03/07 13:35:35;;;;;;;;;;;7.80;78.60;;;;;;5091988;28;20014;-73
2021/03/07 13:38:01;;;;;;;;;;;7.80;77.90;;;;;;5092178;28;20449;-73
2021/03/07 13:40:28;;;;;;;;;;;7.80;78.20;;;;;;5092698;28;20020;-73
2021/03/07 13:42:57;;;;;;;;;;;7.90;78.10;;;;;;5092661;28;19932;-73
2021/03/07 13:45:26;;;;;;;;;;;7.90;78.00;;;;;;5091985;28;19925;-73
2021/03/07 13:47:52;;;;;;;;;;;7.90;78.10;;;;;;5092712;28;20019;-74
2021/03/07 13:50:18;;;;;;;;;;;7.90;78.40;;;;;;5091676;28;20018;-74
2021/03/07 13:52:45;;;;;;;;;;;7.90;78.00;;;;;;5092579;28;20378;-73
2021/03/07 13:55:11;;;;;;;;;;;8.00;77.30;;;;;;5092091;28;20011;-74
2021/03/07 13:57:38;;;;;;;;;;;7.90;77.40;;;;;;5092605;28;19925;-73
2021/03/07 14:00:06;;;;;;;;;;;8.00;77.30;;;;;;5092100;28;20031;-73
2021/03/07 14:02:32;;;;;;;;;;;8.00;77.40;;;;;;5092507;28;19935;-73
2021/03/07 14:04:58;;;;;;;;;;;8.10;76.80;;;;;;5092449;28;20007;-73
2021/03/07 14:07:25;;;;;;;;;;;8.10;76.70;;;;;;5092363;28;20367;-73
2021/03/07 14:09:51;;;;;;;;;;;8.00;76.00;;;;;;5092265;28;20024;-73
2021/03/07 14:12:17;;;;;;;;;;;8.00;75.90;;;;;;5100453;28;20004;-73
2021/03/07 14:14:44;;;;;;;;;;;8.10;76.20;;;;;;5112765;28;20006;-74
2021/03/07 14:17:10;;;;;;;;;;;8.10;75.90;;;;;;5112300;28;20002;-73
2021/03/07 14:19:37;;;;;;;;;;;8.20;75.40;;;;;;5112606;28;19962;-74
2021/03/07 14:22:03;;;;;;;;;;;8.20;75.00;;;;;;5112199;28;20354;-73
2021/03/07 14:24:29;;;;;;;;;;;8.20;75.20;;;;;;5112651;28;20327;-72
2021/03/07 14:26:58;;;;;;;;;;;8.30;74.90;;;;;;5112586;28;20294;-72
2021/03/07 14:29:24;;;;;;;;;;;8.40;74.30;;;;;;5112256;28;20010;-73
2021/03/07 14:31:51;;;;;;;;;;;8.40;74.20;;;;;;5112834;28;20011;-74